createdAt,value
2018-08-31T09:22:25.696Z,28.30
2018-08-31T10:57:30.010Z,22.90
2018-08-31T11:00:16.516Z,22.70
2018-08-31T11:02:52.938Z,22.40
2018-08-31T11:05:24.471Z,22.10
2018-08-31T11:08:03.474Z,21.80
2018-08-31T11:10:38.089Z,21.60
2018-08-31T11:13:10.060Z,21.50
2018-08-31T11:15:44.381Z,21.50
2018-08-31T11:21:08.820Z,21.50
2018-08-31T11:23:40.757Z,21.70
2018-08-31T11:26:17.771Z,21.80
2018-08-31T11:28:51.100Z,21.80
2018-08-31T11:31:28.407Z,21.60
2018-08-31T11:34:23.680Z,21.70
2018-08-31T11:40:21.119Z,21.80
2018-08-31T11:42:55.161Z,21.70
2018-08-31T11:45:30.724Z,21.40
2018-08-31T11:48:03.599Z,21.50
2018-08-31T11:50:36.669Z,21.30
2018-08-31T11:53:11.980Z,21.20
2018-08-31T11:55:45.896Z,21.00
2018-08-31T11:58:20.535Z,21.00
2018-08-31T12:00:55.066Z,20.80
2018-08-31T12:03:31.410Z,20.90
2018-08-31T12:41:11.492Z,21.10
2018-08-31T12:44:07.442Z,21.40
2018-08-31T12:46:40.437Z,21.70
2018-08-31T12:49:11.597Z,22.00
2018-08-31T12:51:42.441Z,21.60
2018-08-31T12:57:41.853Z,21.50
2018-08-31T13:00:50.945Z,21.70
2018-08-31T13:03:41.220Z,22.00
2018-08-31T13:06:17.969Z,21.80
2018-08-31T13:11:51.343Z,21.40
2018-08-31T13:14:26.600Z,21.50
2018-08-31T13:16:59.176Z,21.70
2018-08-31T13:19:31.069Z,21.50
2018-08-31T13:22:07.098Z,21.60
2018-08-31T13:27:38.060Z,21.60
2018-08-31T13:34:31.233Z,21.60
2018-08-31T13:37:01.824Z,21.80
2018-08-31T13:39:31.958Z,22.00
2018-08-31T13:42:03.216Z,22.20
2018-08-31T13:44:35.760Z,22.30
2018-08-31T13:47:13.685Z,22.30
2018-08-31T14:10:00.360Z,22.90
2018-08-31T14:12:30.499Z,23.30
2018-08-31T14:15:49.230Z,23.20
2018-08-31T14:18:28.653Z,23.20
2018-08-31T14:20:59.933Z,23.40
2018-08-31T14:51:44.493Z,22.60
2018-08-31T14:54:15.895Z,20.80
2018-08-31T14:56:46.223Z,20.50
2018-08-31T14:59:20.136Z,20.30
2018-08-31T21:49:25.806Z,16.60
2018-08-31T23:22:15.894Z,16.70
2018-08-31T23:55:49.629Z,16.60
